createdAt,value
2023-03-21T00:00:29.519Z,98394.41
2023-03-21T00:02:55.985Z,98381.78
2023-03-21T00:05:22.758Z,98391.19
2023-03-21T00:07:49.329Z,98397.88
2023-03-21T00:10:23.981Z,98374.59
2023-03-21T00:12:58.464Z,98383.97
2023-03-21T00:15:39.291Z,98385.00
2023-03-21T00:18:11.870Z,98389.06
2023-03-21T00:20:38.932Z,98378.88
2023-03-21T00:23:05.680Z,98378.06
2023-03-21T00:25:33.019Z,98375.81
2023-03-21T00:28:07.777Z,98375.41
2023-03-21T00:30:35.379Z,98371.09
2023-03-21T00:33:08.959Z,98384.59
2023-03-21T00:36:05.795Z,98368.66
2023-03-21T00:38:34.169Z,98353.53
2023-03-21T00:41:04.660Z,98361.91
2023-03-21T00:43:31.300Z,98361.91
2023-03-21T00:45:58.913Z,98361.06
2023-03-21T00:48:26.924Z,98350.66
2023-03-21T00:50:55.532Z,98347.81
2023-03-21T00:53:21.955Z,98343.31
2023-03-21T00:55:48.841Z,98347.81
2023-03-21T00:58:16.274Z,98344.28
2023-03-21T01:00:44.375Z,98338.97
2023-03-21T01:03:23.571Z,98336.31
2023-03-21T01:06:07.000Z,98325.09
2023-03-21T01:08:55.007Z,98329.41
2023-03-21T01:11:24.780Z,98333.50
2023-03-21T01:13:57.872Z,98333.53
2023-03-21T01:16:31.435Z,98324.53
2023-03-21T01:18:59.534Z,98325.97
2023-03-21T01:21:26.300Z,98317.81
2023-03-21T01:23:52.743Z,98328.00
2023-03-21T01:26:19.496Z,98329.84
2023-03-21T01:28:45.976Z,98328.59
2023-03-21T01:31:14.639Z,98334.34
2023-03-21T01:33:41.927Z,98310.84
2023-03-21T01:36:14.350Z,98301.41
2023-03-21T01:38:42.751Z,98321.63
2023-03-21T01:41:47.270Z,98321.22
2023-03-21T01:44:19.872Z,98302.66
2023-03-21T01:47:09.731Z,98316.53
2023-03-21T01:49:50.910Z,98319.41
2023-03-21T01:52:38.088Z,98315.13
2023-03-21T01:55:14.313Z,98310.84
2023-03-21T01:58:05.492Z,98312.66
2023-03-21T02:00:47.094Z,98313.06
2023-03-21T02:03:35.669Z,98302.84
2023-03-21T02:06:24.496Z,98298.97
2023-03-21T02:08:55.465Z,98300.00
2023-03-21T02:11:23.729Z,98296.72
2023-03-21T02:13:55.853Z,98305.69
2023-03-21T02:16:48.174Z,98291.41
2023-03-21T02:19:31.987Z,98250.13
2023-03-21T02:22:26.920Z,98289.16
2023-03-21T02:25:25.206Z,98284.47
2023-03-21T02:28:04.734Z,98288.16
2023-03-21T02:30:53.255Z,98282.41
2023-03-21T02:33:48.538Z,98290.16
2023-03-21T02:36:44.799Z,98288.31
2023-03-21T02:39:19.881Z,98279.50
2023-03-21T02:42:04.802Z,98283.63
2023-03-21T02:44:49.292Z,98276.28
2023-03-21T02:47:37.434Z,98275.88
2023-03-21T02:50:17.937Z,98273.84
2023-03-21T02:52:48.152Z,98275.63
2023-03-21T02:55:19.998Z,98258.63
2023-03-21T02:57:56.501Z,98269.28
2023-03-21T03:00:27.523Z,98255.19
2023-03-21T03:03:08.184Z,98256.19
2023-03-21T03:05:41.206Z,98256.19
2023-03-21T03:09:15.702Z,98245.63
2023-03-21T03:11:44.641Z,98248.69
2023-03-21T03:14:38.480Z,98252.75
2023-03-21T03:17:28.425Z,98254.97
2023-03-21T03:20:16.624Z,98244.00
2023-03-21T03:22:52.677Z,98248.91
2023-03-21T03:25:36.079Z,98253.97
2023-03-21T03:28:09.371Z,98254.19
2023-03-21T03:30:43.374Z,98251.56
2023-03-21T03:33:17.884Z,98254.97
2023-03-21T03:35:53.078Z,98251.72
2023-03-21T03:38:31.707Z,98259.44
2023-03-21T03:41:08.013Z,98251.72
2023-03-21T03:43:53.904Z,98248.47
2023-03-21T03:46:33.229Z,98249.25
2023-03-21T03:49:10.745Z,98261.50
2023-03-21T03:51:54.801Z,98262.28
2023-03-21T03:54:47.451Z,98261.81
2023-03-21T03:57:16.076Z,98260.59
2023-03-21T03:59:44.422Z,98261.81
2023-03-21T04:02:14.737Z,98261.81
2023-03-21T04:04:41.980Z,98259.81
2023-03-21T04:07:09.024Z,98262.88
2023-03-21T04:09:44.185Z,98259.63
2023-03-21T04:12:14.080Z,98268.00
2023-03-21T04:14:46.008Z,98265.75
2023-03-21T04:17:18.624Z,98261.25
2023-03-21T04:19:46.236Z,98255.75
2023-03-21T04:22:13.447Z,98263.31
2023-03-21T04:24:42.857Z,98258.59
2023-03-21T04:27:09.799Z,98259.16
2023-03-21T04:29:41.228Z,98257.72
2023-03-21T04:32:26.097Z,98256.72
2023-03-21T04:35:02.330Z,98256.53
2023-03-21T04:37:29.436Z,98256.97
2023-03-21T04:39:55.932Z,98261.19
2023-03-21T04:42:22.678Z,98252.84
2023-03-21T04:44:49.443Z,98258.16
2023-03-21T04:47:16.827Z,98249.84
2023-03-21T04:49:43.488Z,98245.75
2023-03-21T04:52:11.384Z,98244.53
2023-03-21T04:54:37.826Z,98241.03
2023-03-21T04:57:04.814Z,98236.34
2023-03-21T04:59:31.641Z,98240.22
2023-03-21T05:01:58.528Z,98236.34
2023-03-21T05:04:26.826Z,98236.97
2023-03-21T05:06:54.412Z,98231.66
2023-03-21T05:09:22.170Z,98225.81
2023-03-21T05:11:49.123Z,98229.25
2023-03-21T05:14:20.565Z,98225.16
2023-03-21T05:16:53.474Z,98213.34
2023-03-21T05:19:34.833Z,98223.56
2023-03-21T05:22:05.378Z,98225.97
2023-03-21T05:24:33.111Z,98224.31
2023-03-21T05:27:02.653Z,98228.97
2023-03-21T05:29:33.354Z,98224.25
2023-03-21T05:32:05.634Z,98226.50
2023-03-21T05:34:32.064Z,98221.03
2023-03-21T05:36:59.560Z,98223.72
2023-03-21T05:39:35.573Z,98233.34
2023-03-21T05:42:07.745Z,98231.72
2023-03-21T05:44:34.524Z,98226.03
2023-03-21T05:47:06.524Z,98230.53
2023-03-21T05:49:44.213Z,98221.56
2023-03-21T05:52:11.198Z,98226.47
2023-03-21T05:54:38.000Z,98230.34
2023-03-21T05:57:05.417Z,98224.00
2023-03-21T05:59:50.976Z,98226.47
2023-03-21T06:02:18.857Z,98221.78
2023-03-21T06:04:46.695Z,98230.56
2023-03-21T06:07:13.196Z,98233.00
2023-03-21T06:09:41.022Z,98229.72
2023-03-21T06:12:07.795Z,98231.72
2023-03-21T06:14:57.076Z,98188.88
2023-03-21T06:17:30.009Z,98222.00
2023-03-21T06:20:02.867Z,98224.69
2023-03-21T06:22:37.849Z,98226.69
2023-03-21T06:25:07.399Z,98233.25
2023-03-21T06:27:34.532Z,98219.16
2023-03-21T06:30:01.644Z,98227.75
2023-03-21T06:32:34.279Z,98228.56
2023-03-21T06:35:08.545Z,98231.44
2023-03-21T06:37:35.867Z,98229.00
2023-03-21T06:40:05.031Z,98238.38
2023-03-21T06:42:32.493Z,98245.50
2023-03-21T06:45:06.576Z,98245.94
2023-03-21T06:47:33.008Z,98242.66
2023-03-21T06:50:00.745Z,98244.91
2023-03-21T06:52:27.335Z,98253.09
2023-03-21T06:54:53.879Z,98245.34
2023-03-21T06:57:21.922Z,98244.25
2023-03-21T06:59:49.497Z,98206.06
2023-03-21T07:02:19.910Z,98239.09
2023-03-21T07:05:01.630Z,98246.81
2023-03-21T07:07:29.730Z,98246.00
2023-03-21T07:09:56.431Z,98250.28
2023-03-21T07:12:23.969Z,98245.16
2023-03-21T07:15:06.886Z,98241.88
2023-03-21T07:17:33.743Z,98240.41
2023-03-21T07:20:00.588Z,98241.81
2023-03-21T07:22:27.133Z,98236.44
2023-03-21T07:25:04.469Z,98236.84
2023-03-21T07:27:40.669Z,98241.69
2023-03-21T07:30:08.305Z,98243.50
2023-03-21T07:32:37.875Z,98237.50
2023-03-21T07:35:06.873Z,98208.13
2023-03-21T07:37:33.345Z,98234.59
2023-03-21T07:40:00.196Z,98236.09
2023-03-21T07:42:26.603Z,98237.84
2023-03-21T07:44:59.147Z,98232.38
2023-03-21T07:47:26.723Z,98230.00
2023-03-21T07:49:53.206Z,98227.25
2023-03-21T07:52:19.726Z,98226.53
2023-03-21T07:54:46.235Z,98226.47
2023-03-21T07:57:13.820Z,98227.88
2023-03-21T07:59:40.371Z,98234.84
2023-03-21T08:02:07.258Z,98236.03
2023-03-21T08:04:35.038Z,98240.50
2023-03-21T08:07:01.747Z,98233.09
2023-03-21T08:09:30.135Z,98234.84
2023-03-21T08:11:57.495Z,98238.94
2023-03-21T08:14:23.953Z,98244.34
2023-03-21T08:16:50.731Z,98234.53
2023-03-21T08:19:20.635Z,98239.28
2023-03-21T08:21:50.990Z,98233.59
2023-03-21T08:24:17.501Z,98235.22
2023-03-21T08:26:45.901Z,98234.53
2023-03-21T08:29:13.739Z,98227.88
2023-03-21T08:31:41.291Z,98227.75
2023-03-21T08:34:08.021Z,98239.91
2023-03-21T08:36:36.842Z,98243.63
2023-03-21T08:39:05.501Z,98236.06
2023-03-21T08:41:33.707Z,98235.00
2023-03-21T08:44:00.243Z,98240.78
2023-03-21T08:46:27.103Z,98231.13
2023-03-21T08:48:54.449Z,98238.00
2023-03-21T08:51:21.184Z,98238.22
2023-03-21T08:53:50.856Z,98226.84
2023-03-21T08:56:18.300Z,98222.69
2023-03-21T08:58:45.339Z,98228.00
2023-03-21T09:01:15.454Z,98230.53
2023-03-21T09:03:42.788Z,98218.44
2023-03-21T09:06:10.742Z,98217.66
2023-03-21T09:08:38.247Z,98223.50
2023-03-21T09:11:04.874Z,98216.56
2023-03-21T09:13:31.270Z,98211.72
2023-03-21T09:16:01.221Z,98225.47
2023-03-21T09:18:39.037Z,98216.38
2023-03-21T09:21:12.682Z,98216.84
2023-03-21T09:23:40.110Z,98215.56
2023-03-21T09:26:11.226Z,98220.72
2023-03-21T09:28:39.145Z,98213.16
2023-03-21T09:31:06.530Z,98214.88
2023-03-21T09:33:33.190Z,98216.50
2023-03-21T09:36:00.425Z,98210.25
2023-03-21T09:38:30.414Z,98215.69
2023-03-21T09:41:18.288Z,98215.00
2023-03-21T09:44:15.616Z,98216.50
2023-03-21T09:47:02.460Z,98221.75
2023-03-21T09:49:43.543Z,98222.78
2023-03-21T09:52:16.859Z,98213.84
2023-03-21T09:54:44.675Z,98222.47
2023-03-21T09:57:38.068Z,98217.13
2023-03-21T10:00:15.814Z,98222.59
2023-03-21T10:02:49.511Z,98221.88
2023-03-21T10:05:27.102Z,98204.78
2023-03-21T10:07:59.970Z,98214.31
2023-03-21T10:10:37.398Z,98213.59
2023-03-21T10:13:07.445Z,98206.72
2023-03-21T10:15:33.880Z,98209.38
2023-03-21T10:18:07.138Z,98206.81
2023-03-21T10:20:38.334Z,98201.00
2023-03-21T10:23:08.060Z,98204.63
2023-03-21T10:25:38.077Z,98204.00
2023-03-21T10:28:07.549Z,98190.53
2023-03-21T10:30:44.370Z,98190.16
2023-03-21T10:33:18.264Z,98190.97
2023-03-21T10:35:49.397Z,98178.97
2023-03-21T10:38:19.906Z,98187.56
2023-03-21T10:40:46.677Z,98190.25
2023-03-21T10:43:34.261Z,98187.44
2023-03-21T10:46:13.410Z,98183.25
2023-03-21T10:48:46.312Z,98185.63
2023-03-21T10:51:19.204Z,98177.16
2023-03-21T10:53:51.683Z,98165.72
2023-03-21T10:56:18.905Z,98167.16
2023-03-21T10:58:47.038Z,98170.13
2023-03-21T11:01:26.015Z,98158.13
2023-03-21T11:03:58.028Z,98169.78
2023-03-21T11:06:46.877Z,98172.09
2023-03-21T11:09:20.234Z,98156.63
2023-03-21T11:12:10.918Z,98165.53
2023-03-21T11:14:41.695Z,98160.66
2023-03-21T11:17:17.019Z,98156.78
2023-03-21T11:19:56.825Z,98157.38
2023-03-21T11:22:27.278Z,98149.28
2023-03-21T11:24:59.274Z,98147.25
2023-03-21T11:27:31.107Z,98148.88
2023-03-21T11:30:01.621Z,98146.25
2023-03-21T11:32:36.052Z,98148.44
2023-03-21T11:35:21.092Z,98144.75
2023-03-21T11:37:55.190Z,98146.34
2023-03-21T11:40:23.542Z,98146.34
2023-03-21T11:42:58.817Z,98143.03
2023-03-21T11:45:31.069Z,98135.78
2023-03-21T11:48:00.233Z,98143.03
2023-03-21T11:50:27.127Z,98128.56
2023-03-21T11:53:28.081Z,98125.63
2023-03-21T11:56:09.900Z,98122.72
2023-03-21T11:58:47.016Z,98109.69
2023-03-21T12:01:27.519Z,98123.81
2023-03-21T12:04:07.299Z,98121.63
2023-03-21T12:06:40.558Z,98117.41
2023-03-21T12:09:25.786Z,98106.78
2023-03-21T12:12:29.975Z,98115.16
2023-03-21T12:15:17.683Z,98109.75
2023-03-21T12:17:53.236Z,98106.00
2023-03-21T12:20:56.622Z,98098.59
2023-03-21T12:23:23.108Z,98101.78
2023-03-21T12:26:29.368Z,98095.47
2023-03-21T12:29:23.283Z,98089.84
2023-03-21T12:32:08.100Z,98090.66
2023-03-21T12:35:03.820Z,98089.34
2023-03-21T12:37:45.209Z,98073.69
2023-03-21T12:40:36.223Z,98087.38
2023-03-21T12:43:24.351Z,98082.44
2023-03-21T12:45:57.855Z,98089.09
2023-03-21T12:48:28.292Z,98093.84
2023-03-21T12:50:58.421Z,98085.88
2023-03-21T12:53:53.115Z,98082.03
2023-03-21T12:56:25.382Z,98076.19
2023-03-21T12:58:57.844Z,98082.25
2023-03-21T13:01:25.631Z,98086.50
2023-03-21T13:04:07.101Z,98086.88
2023-03-21T13:06:36.566Z,98090.50
2023-03-21T13:09:13.267Z,98093.03
2023-03-21T13:11:40.356Z,98086.53
2023-03-21T13:14:29.946Z,98089.53
2023-03-21T13:17:10.755Z,98088.00
2023-03-21T13:19:47.303Z,98090.59
2023-03-21T13:22:26.397Z,98089.28
2023-03-21T13:25:19.386Z,98089.19
2023-03-21T13:27:52.977Z,98081.56
2023-03-21T13:30:22.871Z,98070.53
2023-03-21T13:32:51.436Z,98061.19
2023-03-21T13:35:38.341Z,98057.41
2023-03-21T13:38:12.740Z,98061.25
2023-03-21T13:40:49.187Z,98045.75
2023-03-21T13:43:38.878Z,98050.69
2023-03-21T13:46:07.381Z,98039.97
2023-03-21T13:49:05.474Z,98037.56
2023-03-21T13:51:31.855Z,98041.47
2023-03-21T13:54:29.916Z,98034.31
2023-03-21T13:57:01.240Z,98031.25
2023-03-21T13:59:39.158Z,98028.34
2023-03-21T14:02:28.775Z,98023.00
2023-03-21T14:05:07.051Z,98008.72
2023-03-21T14:07:47.428Z,98019.13
2023-03-21T14:10:30.689Z,98047.03
2023-03-21T14:12:57.395Z,98041.22
2023-03-21T14:15:46.403Z,98018.00
2023-03-21T14:18:28.038Z,98013.97
2023-03-21T14:21:09.225Z,97992.25
2023-03-21T14:23:38.612Z,97997.59
2023-03-21T14:26:06.213Z,98007.78
2023-03-21T14:28:33.561Z,97994.88
2023-03-21T14:31:01.064Z,97999.28
2023-03-21T14:33:32.794Z,97992.66
2023-03-21T14:36:04.129Z,97982.44
2023-03-21T14:38:37.164Z,97998.47
2023-03-21T14:41:04.416Z,98009.88
2023-03-21T14:43:33.987Z,98012.03
2023-03-21T14:46:01.143Z,98009.16
2023-03-21T14:48:34.811Z,97997.38
2023-03-21T14:51:09.139Z,98001.09
2023-03-21T14:53:41.006Z,97993.97
2023-03-21T14:56:17.025Z,98002.25
2023-03-21T14:58:46.235Z,97999.41
2023-03-21T15:01:17.375Z,97995.81
2023-03-21T15:03:46.199Z,97989.31
2023-03-21T15:06:14.467Z,97976.31
2023-03-21T15:08:54.884Z,97962.66
2023-03-21T15:11:36.580Z,97948.44
2023-03-21T15:14:06.821Z,97946.34
2023-03-21T15:16:34.460Z,97947.72
2023-03-21T15:19:02.196Z,97945.34
2023-03-21T15:21:42.187Z,97957.66
2023-03-21T15:24:20.929Z,97958.00
2023-03-21T15:26:49.606Z,97950.09
2023-03-21T15:29:17.650Z,97948.06
2023-03-21T15:31:46.717Z,97946.88
2023-03-21T15:34:42.577Z,97948.16
2023-03-21T15:37:16.938Z,97946.41
2023-03-21T15:39:43.649Z,97939.16
2023-03-21T15:42:34.096Z,97945.09
2023-03-21T15:45:02.578Z,97946.28
2023-03-21T15:47:58.837Z,97937.69
2023-03-21T15:50:29.547Z,97945.78
2023-03-21T15:53:00.656Z,97950.59
2023-03-21T15:55:42.598Z,97956.19
2023-03-21T15:58:16.167Z,97960.97
2023-03-21T16:00:57.428Z,97957.69
2023-03-21T16:03:30.400Z,97962.25
2023-03-21T16:06:04.281Z,97964.19
2023-03-21T16:09:09.263Z,97966.16
2023-03-21T16:11:47.763Z,97960.34
2023-03-21T16:14:14.192Z,97968.56
2023-03-21T16:16:40.820Z,97965.31
2023-03-21T16:19:07.485Z,97964.50
2023-03-21T16:21:35.249Z,97968.38
2023-03-21T16:24:02.143Z,97962.72
2023-03-21T16:26:35.750Z,97946.69
2023-03-21T16:29:03.281Z,97961.34
2023-03-21T16:31:33.027Z,97956.09
2023-03-21T16:33:59.559Z,97956.66
2023-03-21T16:36:29.473Z,97952.94
2023-03-21T16:38:56.473Z,97954.16
2023-03-21T16:41:25.395Z,97958.22
2023-03-21T16:43:52.241Z,97953.13
2023-03-21T16:46:24.729Z,97947.44
2023-03-21T16:48:54.435Z,97943.97
2023-03-21T16:51:33.297Z,97954.38
2023-03-21T16:54:00.503Z,97951.69
2023-03-21T16:56:31.058Z,97960.50
2023-03-21T16:58:57.922Z,97956.66
2023-03-21T17:01:29.959Z,97949.19
2023-03-21T17:03:57.826Z,97960.34
2023-03-21T17:06:27.598Z,97960.00
2023-03-21T17:08:55.655Z,97957.31
2023-03-21T17:11:23.831Z,97959.78
2023-03-21T17:13:52.416Z,97965.94
2023-03-21T17:16:25.459Z,97951.19
2023-03-21T17:18:53.110Z,97951.75
2023-03-21T17:21:21.903Z,97943.16
2023-03-21T17:23:50.132Z,97948.97
2023-03-21T17:26:21.070Z,97933.31
2023-03-21T17:28:47.842Z,97909.00
2023-03-21T17:31:16.742Z,97928.13
2023-03-21T17:33:43.832Z,97921.44
2023-03-21T17:36:24.623Z,97942.69
2023-03-21T17:38:52.742Z,97943.63
2023-03-21T17:41:20.497Z,97939.91
2023-03-21T17:43:47.143Z,97935.38
2023-03-21T17:46:16.561Z,97946.06
2023-03-21T17:48:44.929Z,97939.34
2023-03-21T17:51:14.752Z,97940.41
2023-03-21T17:53:45.120Z,97941.44
2023-03-21T17:56:17.619Z,97946.69
2023-03-21T17:58:44.358Z,97941.81
2023-03-21T18:01:10.910Z,97947.03
2023-03-21T18:03:37.339Z,97949.03
2023-03-21T18:06:04.583Z,97953.78
2023-03-21T18:08:31.259Z,97944.88
2023-03-21T18:10:58.080Z,97963.19
2023-03-21T18:13:25.361Z,97971.06
2023-03-21T18:15:52.883Z,97967.25
2023-03-21T18:18:19.495Z,97974.22
2023-03-21T18:20:52.153Z,97975.56
2023-03-21T18:23:19.433Z,97965.84
2023-03-21T18:25:46.215Z,97961.56
2023-03-21T18:28:13.236Z,97967.31
2023-03-21T18:31:05.196Z,97974.84
2023-03-21T18:33:27.701Z,97969.50
2023-03-21T18:35:58.944Z,97970.66
2023-03-21T18:38:27.418Z,97978.22
2023-03-21T18:40:54.527Z,97974.59
2023-03-21T18:46:08.270Z,97980.03
2023-03-21T18:48:35.668Z,97977.13
2023-03-21T18:51:02.902Z,97979.72
2023-03-21T18:53:29.825Z,97981.41
2023-03-21T18:55:57.475Z,97982.13
2023-03-21T18:58:24.744Z,97992.44
2023-03-21T19:00:53.390Z,97994.03
2023-03-21T19:03:34.272Z,97994.13
2023-03-21T19:06:03.739Z,97998.88
2023-03-21T19:08:30.772Z,98000.25
2023-03-21T19:11:00.177Z,97963.53
2023-03-21T19:13:28.174Z,97995.19
2023-03-21T19:15:54.558Z,97997.13
2023-03-21T19:21:08.150Z,98004.97
2023-03-21T19:23:59.273Z,98000.00
2023-03-21T19:26:22.069Z,98004.00
2023-03-21T19:28:48.505Z,97991.56
2023-03-21T19:31:14.964Z,97984.00
2023-03-21T19:33:41.471Z,98003.38
2023-03-21T19:36:17.995Z,98000.56
2023-03-21T19:38:44.844Z,97997.84
2023-03-21T19:41:11.308Z,97984.31
2023-03-21T19:43:40.012Z,97979.94
2023-03-21T19:46:06.893Z,97988.53
2023-03-21T19:48:33.699Z,97986.47
2023-03-21T19:51:36.411Z,97997.97
2023-03-21T19:53:49.262Z,97989.66
2023-03-21T19:56:22.466Z,97997.63
2023-03-21T19:58:50.575Z,97994.09
2023-03-21T20:01:17.144Z,97998.06
2023-03-21T20:03:44.413Z,97990.84
2023-03-21T20:06:11.630Z,97991.06
2023-03-21T20:09:05.277Z,97985.44
2023-03-21T20:11:24.543Z,97998.19
2023-03-21T20:13:51.171Z,97992.38
2023-03-21T20:16:18.401Z,97983.84
2023-03-21T20:18:46.065Z,98003.06
2023-03-21T20:21:17.737Z,97995.13
2023-03-21T20:23:49.212Z,98006.78
2023-03-21T20:26:16.763Z,98005.38
2023-03-21T20:28:56.107Z,97999.88
2023-03-21T20:31:26.229Z,98008.97
2023-03-21T20:33:53.145Z,98002.63
2023-03-21T20:39:08.705Z,98011.28
2023-03-21T20:41:35.186Z,98011.38
2023-03-21T20:46:48.313Z,98025.91
2023-03-21T20:49:15.484Z,98024.03
2023-03-21T20:54:30.048Z,98003.94
2023-03-21T20:56:57.172Z,98001.25
2023-03-21T20:59:27.605Z,98001.84
2023-03-21T21:01:57.847Z,98002.06
2023-03-21T21:04:44.259Z,97997.97
2023-03-21T21:07:15.823Z,97987.19
2023-03-21T21:09:43.825Z,98000.13
2023-03-21T21:12:10.970Z,98003.44
2023-03-21T21:14:38.271Z,97999.00
2023-03-21T21:17:40.657Z,98007.84
2023-03-21T21:19:56.378Z,97999.88
2023-03-21T21:22:22.942Z,98005.72
2023-03-21T21:24:49.375Z,98009.13
2023-03-21T21:27:15.925Z,98007.91
2023-03-21T21:29:43.248Z,98004.56
2023-03-21T21:32:11.085Z,98014.41
2023-03-21T21:34:37.576Z,98015.84
2023-03-21T21:37:04.178Z,98014.88
2023-03-21T21:39:35.103Z,98005.31
2023-03-21T21:42:02.206Z,98022.47
2023-03-21T21:44:28.684Z,98010.25
2023-03-21T21:46:55.255Z,98001.72
2023-03-21T21:49:21.736Z,98004.53
2023-03-21T21:51:48.188Z,98014.34
2023-03-21T21:54:18.060Z,98000.06
2023-03-21T21:56:48.291Z,98004.13
2023-03-21T21:59:18.518Z,98007.00
2023-03-21T22:01:46.510Z,98007.78
2023-03-21T22:04:14.453Z,98001.31
2023-03-21T22:06:42.200Z,98009.28
2023-03-21T22:09:09.448Z,98007.66
2023-03-21T22:11:36.295Z,98002.16
2023-03-21T22:14:03.550Z,98004.59
2023-03-21T22:16:30.190Z,98002.38
2023-03-21T22:18:56.811Z,97998.28
2023-03-21T22:21:23.404Z,97998.72
2023-03-21T22:23:49.894Z,97990.38
2023-03-21T22:26:16.589Z,97995.06
2023-03-21T22:28:43.575Z,97995.25
2023-03-21T22:31:18.725Z,97992.63
2023-03-21T22:33:45.700Z,97985.06
2023-03-21T22:36:12.470Z,97988.94
2023-03-21T22:38:38.993Z,97983.59
2023-03-21T22:41:06.604Z,97987.38
2023-03-21T22:43:34.228Z,97983.25
2023-03-21T22:46:02.796Z,97972.84
2023-03-21T22:48:32.826Z,97980.34
2023-03-21T22:51:00.513Z,97977.06
2023-03-21T22:53:26.969Z,97970.31
2023-03-21T22:55:53.792Z,97967.66
2023-03-21T22:58:20.689Z,97965.22
2023-03-21T23:00:47.444Z,97966.84
2023-03-21T23:03:16.531Z,97970.69
2023-03-21T23:05:44.198Z,97973.75
2023-03-21T23:08:11.514Z,97972.94
2023-03-21T23:10:41.388Z,97970.84
2023-03-21T23:13:08.040Z,97975.91
2023-03-21T23:15:34.453Z,97965.88
2023-03-21T23:18:01.063Z,97967.47
2023-03-21T23:20:27.809Z,97965.81
2023-03-21T23:22:54.279Z,97963.34
2023-03-21T23:25:20.941Z,97963.16
2023-03-21T23:27:48.000Z,97958.03
2023-03-21T23:30:14.544Z,97960.16
2023-03-21T23:32:41.423Z,97965.22
2023-03-21T23:35:08.385Z,97964.41
2023-03-21T23:37:34.928Z,97965.47
2023-03-21T23:40:01.514Z,97962.56
2023-03-21T23:42:29.071Z,97963.97
2023-03-21T23:44:55.635Z,97960.81
2023-03-21T23:47:22.110Z,97958.50
2023-03-21T23:49:49.992Z,97968.47
2023-03-21T23:52:16.421Z,97947.22
2023-03-21T23:54:43.081Z,97948.31
2023-03-21T23:57:10.324Z,97939.16
2023-03-21T23:59:36.827Z,97938.34
